sensor_id;sensor_type;location;lat;lon;timestamp;P1;durP1;ratioP1;P2;durP2;ratioP2
50134;SDS011;36033;55.482;37.380;2022-07-30T15:27:09;1.10;;;0.43;;
50134;SDS011;36033;55.482;37.380;2022-07-30T15:29:35;4.43;;;1.00;;
50134;SDS011;36033;55.482;37.380;2022-07-30T15:32:01;0.57;;;0.40;;
50134;SDS011;36033;55.482;37.380;2022-07-30T15:34:27;1.00;;;0.60;;
50134;SDS011;36033;55.482;37.380;2022-07-30T15:36:58;1.90;;;1.40;;
50134;SDS011;36033;55.482;37.380;2022-07-30T15:39:24;4.38;;;2.85;;
50134;SDS011;36033;55.482;37.380;2022-07-30T15:41:50;3.00;;;1.55;;
50134;SDS011;36033;55.482;37.380;2022-07-30T15:44:18;3.75;;;1.98;;
50134;SDS011;36033;55.482;37.380;2022-07-30T15:46:44;1.70;;;1.25;;
50134;SDS011;36033;55.482;37.380;2022-07-30T15:49:09;4.32;;;0.93;;
50134;SDS011;36033;55.482;37.380;2022-07-30T15:51:35;1.55;;;0.65;;
50134;SDS011;36033;55.482;37.380;2022-07-30T15:54:01;3.92;;;2.30;;
50134;SDS011;36033;55.482;37.380;2022-07-30T15:56:27;2.83;;;1.50;;
50134;SDS011;36033;55.482;37.380;2022-07-30T15:58:54;5.90;;;4.80;;
50134;SDS011;36033;55.482;37.380;2022-07-30T16:01:19;3.75;;;1.83;;
50134;SDS011;36033;55.482;37.380;2022-07-30T16:03:52;1.83;;;1.30;;
50134;SDS011;36033;55.482;37.380;2022-07-30T16:06:19;3.50;;;1.38;;
50134;SDS011;36033;55.482;37.380;2022-07-30T16:08:44;5.88;;;1.27;;
50134;SDS011;36033;55.482;37.380;2022-07-30T16:11:10;8.23;;;0.90;;
50134;SDS011;36033;55.482;37.380;2022-07-30T16:13:35;5.22;;;1.42;;
50134;SDS011;36033;55.482;37.380;2022-07-30T16:16:01;5.57;;;1.73;;
50134;SDS011;36033;55.482;37.380;2022-07-30T16:18:27;7.50;;;2.10;;
50134;SDS011;36033;55.482;37.380;2022-07-30T16:20:52;3.90;;;1.63;;
50134;SDS011;36033;55.482;37.380;2022-07-30T16:23:22;9.52;;;7.97;;
50134;SDS011;36033;55.482;37.380;2022-07-30T16:25:49;8.55;;;5.50;;
50134;SDS011;36033;55.482;37.380;2022-07-30T16:28:14;7.63;;;5.50;;
50134;SDS011;36033;55.482;37.380;2022-07-30T16:30:40;17.60;;;3.10;;
50134;SDS011;36033;55.482;37.380;2022-07-30T16:33:06;8.00;;;1.50;;
50134;SDS011;36033;55.482;37.380;2022-07-30T16:35:32;2.08;;;0.50;;
50134;SDS011;36033;55.482;37.380;2022-07-30T16:37:58;5.50;;;0.80;;
50134;SDS011;36033;55.482;37.380;2022-07-30T16:40:30;9.60;;;1.75;;
50134;SDS011;36033;55.482;37.380;2022-07-30T16:42:56;7.13;;;2.05;;
50134;SDS011;36033;55.482;37.380;2022-07-30T16:45:21;5.55;;;1.30;;
50134;SDS011;36033;55.482;37.380;2022-07-30T16:47:47;7.40;;;1.30;;
50134;SDS011;36033;55.482;37.380;2022-07-30T16:50:13;9.32;;;1.70;;
50134;SDS011;36033;55.482;37.380;2022-07-30T16:52:39;6.68;;;1.33;;
50134;SDS011;36033;55.482;37.380;2022-07-30T16:55:06;3.45;;;0.60;;
50134;SDS011;36033;55.482;37.380;2022-07-30T16:57:32;6.43;;;0.70;;
50134;SDS011;36033;55.482;37.380;2022-07-30T16:59:58;5.13;;;0.65;;
50134;SDS011;36033;55.482;37.380;2022-07-30T17:04:49;20.95;;;14.98;;
50134;SDS011;36033;55.482;37.380;2022-07-30T17:07:15;13.90;;;11.55;;
50134;SDS011;36033;55.482;37.380;2022-07-30T17:12:07;11.45;;;9.65;;
50134;SDS011;36033;55.482;37.380;2022-07-30T17:14:33;15.25;;;12.60;;
50134;SDS011;36033;55.482;37.380;2022-07-30T17:16:59;6.78;;;5.75;;
50134;SDS011;36033;55.482;37.380;2022-07-30T17:19:25;6.10;;;3.88;;
50134;SDS011;36033;55.482;37.380;2022-07-30T17:21:50;13.15;;;8.60;;
50134;SDS011;36033;55.482;37.380;2022-07-30T17:24:16;12.13;;;9.85;;
50134;SDS011;36033;55.482;37.380;2022-07-30T17:26:42;11.60;;;8.65;;
50134;SDS011;36033;55.482;37.380;2022-07-30T17:29:08;7.13;;;4.80;;
50134;SDS011;36033;55.482;37.380;2022-07-30T17:31:44;6.35;;;3.97;;
50134;SDS011;36033;55.482;37.380;2022-07-30T17:34:10;10.50;;;5.65;;
50134;SDS011;36033;55.482;37.380;2022-07-30T17:36:38;12.18;;;6.45;;
50134;SDS011;36033;55.482;37.380;2022-07-30T17:39:05;21.52;;;19.33;;
50134;SDS011;36033;55.482;37.380;2022-07-30T17:41:31;25.65;;;21.40;;
50134;SDS011;36033;55.482;37.380;2022-07-30T17:43:57;26.17;;;23.42;;
50134;SDS011;36033;55.482;37.380;2022-07-30T17:46:23;25.58;;;21.02;;
50134;SDS011;36033;55.482;37.380;2022-07-30T17:48:49;30.13;;;22.45;;
50134;SDS011;36033;55.482;37.380;2022-07-30T17:51:15;27.63;;;21.38;;
50134;SDS011;36033;55.482;37.380;2022-07-30T17:53:40;24.88;;;15.98;;
50134;SDS011;36033;55.482;37.380;2022-07-30T17:56:06;15.68;;;13.10;;
50134;SDS011;36033;55.482;37.380;2022-07-30T17:58:33;15.32;;;12.70;;
50134;SDS011;36033;55.482;37.380;2022-07-30T18:00:59;19.63;;;12.63;;
50134;SDS011;36033;55.482;37.380;2022-07-30T18:03:27;18.00;;;11.95;;
50134;SDS011;36033;55.482;37.380;2022-07-30T18:05:53;22.85;;;14.40;;
50134;SDS011;36033;55.482;37.380;2022-07-30T18:08:20;20.15;;;14.82;;
50134;SDS011;36033;55.482;37.380;2022-07-30T18:10:47;16.90;;;14.93;;
50134;SDS011;36033;55.482;37.380;2022-07-30T18:13:13;21.98;;;12.80;;
50134;SDS011;36033;55.482;37.380;2022-07-30T18:15:39;17.17;;;11.85;;
50134;SDS011;36033;55.482;37.380;2022-07-30T18:18:05;41.95;;;28.17;;
50134;SDS011;36033;55.482;37.380;2022-07-30T18:20:31;57.10;;;48.25;;
50134;SDS011;36033;55.482;37.380;2022-07-30T18:22:57;33.22;;;28.92;;
50134;SDS011;36033;55.482;37.380;2022-07-30T18:25:24;28.75;;;22.05;;
50134;SDS011;36033;55.482;37.380;2022-07-30T18:27:50;28.00;;;23.67;;
50134;SDS011;36033;55.482;37.380;2022-07-30T18:30:16;28.63;;;21.40;;
50134;SDS011;36033;55.482;37.380;2022-07-30T18:35:09;13.52;;;11.13;;
50134;SDS011;36033;55.482;37.380;2022-07-30T18:37:36;14.57;;;13.13;;
50134;SDS011;36033;55.482;37.380;2022-07-30T18:40:02;18.40;;;14.82;;
50134;SDS011;36033;55.482;37.380;2022-07-30T18:44:55;14.80;;;11.88;;
50134;SDS011;36033;55.482;37.380;2022-07-30T18:47:22;43.88;;;35.97;;
50134;SDS011;36033;55.482;37.380;2022-07-30T18:49:49;102.43;;;85.32;;
50134;SDS011;36033;55.482;37.380;2022-07-30T18:52:15;56.67;;;46.90;;
50134;SDS011;36033;55.482;37.380;2022-07-30T18:54:41;54.83;;;47.95;;
50134;SDS011;36033;55.482;37.380;2022-07-30T18:57:07;41.80;;;35.30;;
50134;SDS011;36033;55.482;37.380;2022-07-30T18:59:33;22.90;;;20.55;;
50134;SDS011;36033;55.482;37.380;2022-07-30T19:01:59;36.38;;;28.02;;
50134;SDS011;36033;55.482;37.380;2022-07-30T19:04:25;44.22;;;33.40;;
50134;SDS011;36033;55.482;37.380;2022-07-30T19:06:51;46.63;;;40.10;;
50134;SDS011;36033;55.482;37.380;2022-07-30T19:09:17;46.97;;;41.40;;
50134;SDS011;36033;55.482;37.380;2022-07-30T19:11:42;88.95;;;72.20;;
50134;SDS011;36033;55.482;37.380;2022-07-30T19:14:08;89.68;;;65.22;;
50134;SDS011;36033;55.482;37.380;2022-07-30T19:16:35;42.03;;;33.70;;
50134;SDS011;36033;55.482;37.380;2022-07-30T19:19:01;47.28;;;32.85;;
50134;SDS011;36033;55.482;37.380;2022-07-30T19:21:27;63.95;;;42.22;;
50134;SDS011;36033;55.482;37.380;2022-07-30T19:23:52;42.38;;;28.75;;
50134;SDS011;36033;55.482;37.380;2022-07-30T19:26:18;20.20;;;15.45;;
50134;SDS011;36033;55.482;37.380;2022-07-30T19:28:44;25.60;;;19.45;;
50134;SDS011;36033;55.482;37.380;2022-07-30T19:31:09;16.95;;;12.57;;
50134;SDS011;36033;55.482;37.380;2022-07-30T19:33:35;13.15;;;7.40;;
50134;SDS011;36033;55.482;37.380;2022-07-30T19:36:00;11.05;;;6.47;;
50134;SDS011;36033;55.482;37.380;2022-07-30T19:40:52;10.82;;;5.25;;
50134;SDS011;36033;55.482;37.380;2022-07-30T19:43:18;6.65;;;5.53;;
50134;SDS011;36033;55.482;37.380;2022-07-30T19:45:43;11.70;;;5.38;;
50134;SDS011;36033;55.482;37.380;2022-07-30T19:48:09;6.38;;;4.95;;
50134;SDS011;36033;55.482;37.380;2022-07-30T19:50:36;6.10;;;4.95;;
50134;SDS011;36033;55.482;37.380;2022-07-30T19:53:02;10.63;;;4.85;;
50134;SDS011;36033;55.482;37.380;2022-07-30T19:55:29;8.93;;;5.20;;
50134;SDS011;36033;55.482;37.380;2022-07-30T19:57:54;18.13;;;5.88;;
50134;SDS011;36033;55.482;37.380;2022-07-30T20:00:21;11.60;;;5.95;;
50134;SDS011;36033;55.482;37.380;2022-07-30T20:02:47;15.13;;;5.80;;
50134;SDS011;36033;55.482;37.380;2022-07-30T20:05:13;9.27;;;5.30;;
50134;SDS011;36033;55.482;37.380;2022-07-30T20:07:39;9.77;;;6.03;;
50134;SDS011;36033;55.482;37.380;2022-07-30T20:10:06;7.35;;;6.05;;
50134;SDS011;36033;55.482;37.380;2022-07-30T20:12:36;7.40;;;5.75;;
50134;SDS011;36033;55.482;37.380;2022-07-30T20:15:05;8.82;;;6.20;;
50134;SDS011;36033;55.482;37.380;2022-07-30T20:17:31;5.47;;;4.93;;
50134;SDS011;36033;55.482;37.380;2022-07-30T20:19:57;9.60;;;5.75;;
50134;SDS011;36033;55.482;37.380;2022-07-30T20:22:23;6.88;;;5.13;;
50134;SDS011;36033;55.482;37.380;2022-07-30T20:24:48;7.80;;;6.35;;
50134;SDS011;36033;55.482;37.380;2022-07-30T20:27:15;9.57;;;8.52;;
50134;SDS011;36033;55.482;37.380;2022-07-30T20:29:41;15.93;;;10.35;;
50134;SDS011;36033;55.482;37.380;2022-07-30T20:32:07;13.90;;;10.85;;
50134;SDS011;36033;55.482;37.380;2022-07-30T20:34:33;17.85;;;12.68;;
50134;SDS011;36033;55.482;37.380;2022-07-30T20:37:00;14.13;;;8.63;;
50134;SDS011;36033;55.482;37.380;2022-07-30T20:39:28;13.43;;;8.82;;
50134;SDS011;36033;55.482;37.380;2022-07-30T20:41:53;16.02;;;12.50;;
50134;SDS011;36033;55.482;37.380;2022-07-30T20:44:33;20.42;;;14.65;;
50134;SDS011;36033;55.482;37.380;2022-07-30T20:47:05;22.33;;;14.60;;
50134;SDS011;36033;55.482;37.380;2022-07-30T20:49:32;20.33;;;14.02;;
50134;SDS011;36033;55.482;37.380;2022-07-30T20:51:57;16.23;;;14.63;;
50134;SDS011;36033;55.482;37.380;2022-07-30T20:54:23;15.95;;;11.88;;
50134;SDS011;36033;55.482;37.380;2022-07-30T20:56:49;14.00;;;12.38;;
50134;SDS011;36033;55.482;37.380;2022-07-30T20:59:15;17.75;;;14.13;;
50134;SDS011;36033;55.482;37.380;2022-07-30T21:01:41;14.77;;;12.20;;
50134;SDS011;36033;55.482;37.380;2022-07-30T21:04:07;12.65;;;9.82;;
50134;SDS011;36033;55.482;37.380;2022-07-30T21:06:33;17.98;;;8.68;;
50134;SDS011;36033;55.482;37.380;2022-07-30T21:09:01;9.95;;;7.53;;
50134;SDS011;36033;55.482;37.380;2022-07-30T21:11:26;10.80;;;6.10;;
50134;SDS011;36033;55.482;37.380;2022-07-30T21:13:52;10.43;;;9.07;;
50134;SDS011;36033;55.482;37.380;2022-07-30T21:16:18;8.85;;;7.40;;
50134;SDS011;36033;55.482;37.380;2022-07-30T21:18:45;12.25;;;7.95;;
50134;SDS011;36033;55.482;37.380;2022-07-30T21:21:11;10.63;;;7.78;;
50134;SDS011;36033;55.482;37.380;2022-07-30T21:23:36;12.63;;;8.87;;
50134;SDS011;36033;55.482;37.380;2022-07-30T21:26:02;12.10;;;9.38;;
50134;SDS011;36033;55.482;37.380;2022-07-30T21:28:28;16.67;;;9.13;;
50134;SDS011;36033;55.482;37.380;2022-07-30T21:33:20;11.32;;;8.93;;
50134;SDS011;36033;55.482;37.380;2022-07-30T21:35:45;11.00;;;9.35;;
50134;SDS011;36033;55.482;37.380;2022-07-30T21:38:11;18.80;;;8.90;;
50134;SDS011;36033;55.482;37.380;2022-07-30T21:40:36;12.82;;;7.85;;
50134;SDS011;36033;55.482;37.380;2022-07-30T21:43:02;9.97;;;7.43;;
50134;SDS011;36033;55.482;37.380;2022-07-30T21:45:27;14.77;;;9.25;;
50134;SDS011;36033;55.482;37.380;2022-07-30T21:47:53;11.20;;;8.10;;
50134;SDS011;36033;55.482;37.380;2022-07-30T21:50:18;15.18;;;8.93;;
50134;SDS011;36033;55.482;37.380;2022-07-30T21:52:44;10.95;;;7.50;;
50134;SDS011;36033;55.482;37.380;2022-07-30T21:55:10;10.43;;;8.68;;
50134;SDS011;36033;55.482;37.380;2022-07-30T21:57:35;13.95;;;7.88;;
50134;SDS011;36033;55.482;37.380;2022-07-30T22:00:04;11.00;;;8.10;;
50134;SDS011;36033;55.482;37.380;2022-07-30T22:02:36;9.60;;;7.43;;
50134;SDS011;36033;55.482;37.380;2022-07-30T22:05:02;9.47;;;7.17;;
50134;SDS011;36033;55.482;37.380;2022-07-30T22:07:28;11.65;;;7.72;;
50134;SDS011;36033;55.482;37.380;2022-07-30T22:09:53;13.32;;;7.97;;
50134;SDS011;36033;55.482;37.380;2022-07-30T22:12:19;11.02;;;7.43;;
50134;SDS011;36033;55.482;37.380;2022-07-30T22:14:44;9.65;;;7.05;;
50134;SDS011;36033;55.482;37.380;2022-07-30T22:17:10;12.95;;;7.93;;
50134;SDS011;36033;55.482;37.380;2022-07-30T22:19:36;12.23;;;8.07;;
50134;SDS011;36033;55.482;37.380;2022-07-30T22:22:07;25.08;;;8.20;;
50134;SDS011;36033;55.482;37.380;2022-07-30T22:24:35;12.52;;;7.90;;
50134;SDS011;36033;55.482;37.380;2022-07-30T22:27:00;10.60;;;7.33;;
50134;SDS011;36033;55.482;37.380;2022-07-30T22:29:26;14.48;;;8.55;;
50134;SDS011;36033;55.482;37.380;2022-07-30T22:31:51;15.97;;;8.70;;
50134;SDS011;36033;55.482;37.380;2022-07-30T22:34:17;12.85;;;9.25;;
50134;SDS011;36033;55.482;37.380;2022-07-30T22:36:43;12.45;;;8.30;;
50134;SDS011;36033;55.482;37.380;2022-07-30T22:39:08;13.48;;;7.13;;
50134;SDS011;36033;55.482;37.380;2022-07-30T22:41:34;12.55;;;8.32;;
50134;SDS011;36033;55.482;37.380;2022-07-30T22:43:59;12.85;;;7.25;;
50134;SDS011;36033;55.482;37.380;2022-07-30T22:46:25;13.32;;;9.18;;
50134;SDS011;36033;55.482;37.380;2022-07-30T22:48:51;13.00;;;9.02;;
50134;SDS011;36033;55.482;37.380;2022-07-30T22:51:16;15.32;;;8.48;;
50134;SDS011;36033;55.482;37.380;2022-07-30T22:53:42;12.73;;;7.10;;
50134;SDS011;36033;55.482;37.380;2022-07-30T22:56:07;17.67;;;8.03;;
50134;SDS011;36033;55.482;37.380;2022-07-30T22:58:33;13.13;;;8.13;;
50134;SDS011;36033;55.482;37.380;2022-07-30T23:00:58;9.63;;;8.48;;
50134;SDS011;36033;55.482;37.380;2022-07-30T23:03:24;23.20;;;9.52;;
50134;SDS011;36033;55.482;37.380;2022-07-30T23:05:50;12.68;;;8.80;;
50134;SDS011;36033;55.482;37.380;2022-07-30T23:08:15;12.13;;;8.53;;
50134;SDS011;36033;55.482;37.380;2022-07-30T23:10:41;12.68;;;8.90;;
50134;SDS011;36033;55.482;37.380;2022-07-30T23:13:07;13.77;;;9.32;;
50134;SDS011;36033;55.482;37.380;2022-07-30T23:15:32;11.57;;;8.50;;
50134;SDS011;36033;55.482;37.380;2022-07-30T23:17:58;21.23;;;8.48;;
50134;SDS011;36033;55.482;37.380;2022-07-30T23:20:24;12.73;;;8.00;;
50134;SDS011;36033;55.482;37.380;2022-07-30T23:22:50;13.65;;;9.40;;
50134;SDS011;36033;55.482;37.380;2022-07-30T23:25:15;12.88;;;8.60;;
50134;SDS011;36033;55.482;37.380;2022-07-30T23:27:41;11.00;;;9.68;;
50134;SDS011;36033;55.482;37.380;2022-07-30T23:30:07;11.30;;;9.43;;
50134;SDS011;36033;55.482;37.380;2022-07-30T23:32:34;11.98;;;8.65;;
50134;SDS011;36033;55.482;37.380;2022-07-30T23:35:00;14.32;;;9.45;;
50134;SDS011;36033;55.482;37.380;2022-07-30T23:37:26;19.92;;;9.48;;
50134;SDS011;36033;55.482;37.380;2022-07-30T23:39:52;10.97;;;8.30;;
50134;SDS011;36033;55.482;37.380;2022-07-30T23:42:17;18.63;;;9.32;;
50134;SDS011;36033;55.482;37.380;2022-07-30T23:44:43;17.53;;;8.60;;
50134;SDS011;36033;55.482;37.380;2022-07-30T23:47:08;14.43;;;9.00;;
50134;SDS011;36033;55.482;37.380;2022-07-30T23:49:34;10.32;;;8.90;;
50134;SDS011;36033;55.482;37.380;2022-07-30T23:52:00;9.57;;;8.38;;
50134;SDS011;36033;55.482;37.380;2022-07-30T23:54:25;12.33;;;9.40;;
50134;SDS011;36033;55.482;37.380;2022-07-30T23:56:53;17.15;;;9.18;;
50134;SDS011;36033;55.482;37.380;2022-07-30T23:59:21;12.60;;;9.15;;
